Time;durP1;ratioP1;P1;durP2;ratioP2;P2;SDS_P1;SDS_P2;PMS_P1;PMS_P2;Temp;Humidity;BMP_temperature;BMP_pressure;BME280_temperature;BME280_humidity;BME280_pressure;Samples;Min_cycle;Max_cycle;Signal;HPM_P1;HPM_P2
2021/11/12 06:17:34;;;;;;;72.55;33.75;;;128.40;2252.80;;;;;;6345936;22;20037;-75
2021/11/12 06:20:00;;;;;;;74.63;33.17;;;103.10;2227.20;;;;;;6349765;22;20011;-76
2021/11/12 06:22:26;;;;;;;67.72;33.53;;;103.20;2227.20;;;;;;6323137;22;19995;-77
2021/11/12 06:24:52;;;;;;;68.78;33.03;;;103.20;2227.20;;;;;;6328116;22;20025;-78
2021/11/12 06:27:19;;;;;;;74.30;34.17;;;103.30;2227.20;;;;;;6357610;22;20006;-77
2021/11/12 06:29:46;;;;;;;67.07;32.92;;;128.00;2252.80;;;;;;6354019;22;20033;-78
2021/11/12 06:32:12;;;;;;;68.10;31.42;;;128.10;2252.80;;;;;;6357456;22;19999;-78
2021/11/12 06:34:39;;;;;;;63.83;32.70;;;128.10;2252.80;;;;;;6325618;22;20073;-76
2021/11/12 06:37:05;;;;;;;66.95;33.35;;;128.00;2252.80;;;;;;6359593;22;20059;-76
2021/11/12 06:39:31;;;;;;;78.22;34.90;;;128.10;2252.80;;;;;;6358981;22;20081;-75
2021/11/12 06:42:03;;;;;;;67.88;33.20;;;128.20;2252.80;;;;;;6363438;22;20320;-75
2021/11/12 06:44:54;;;;;;;75.50;34.20;;;128.20;2252.80;;;;;;6364920;22;19999;-74
2021/11/12 06:50:18;;;;;;;73.55;38.13;;;154.30;2252.80;;;;;;6366045;22;20001;-75
2021/11/12 06:52:47;;;;;;;69.28;34.08;;;128.40;2252.80;;;;;;6337373;22;19991;-74
2021/11/12 06:55:14;;;;;;;65.35;33.13;;;128.50;2252.80;;;;;;6363860;22;20007;-74
2021/11/12 06:57:45;;;;;;;65.90;33.22;;;128.50;2252.80;;;;;;6365225;22;19989;-74
2021/11/12 07:00:17;;;;;;;76.10;34.60;;;128.60;2252.80;;;;;;6338044;22;19983;-75
2021/11/12 07:02:43;;;;;;;77.68;37.78;;;128.60;2252.80;;;;;;6331935;22;19987;-75
2021/11/12 07:05:10;;;;;;;69.88;38.03;;;128.70;2252.80;;;;;;6359997;22;20030;-77
2021/11/12 07:07:36;;;;;;;83.13;39.17;;;128.80;2252.80;;;;;;6362271;22;20121;-79
2021/11/12 07:10:04;;;;;;;74.70;38.83;;;128.80;2252.80;;;;;;6363405;22;19983;-77
2021/11/12 07:12:29;;;;;;;79.22;38.72;;;153.60;2252.80;;;;;;6364521;22;20003;-77
2021/11/12 07:14:55;;;;;;;73.07;38.25;;;153.70;2252.80;;;;;;6359123;22;19990;-75
2021/11/12 07:17:27;;;;;;;76.63;41.53;;;153.90;2252.80;;;;;;6356016;22;20408;-74
2021/11/12 07:19:54;;;;;;;76.55;40.05;;;;;;;;;;6360988;22;20011;-75
2021/11/12 07:22:20;;;;;;;81.90;43.03;;;;;;;;;;6362824;22;20010;-75
2021/11/12 07:24:48;;;;;;;73.18;39.58;;;;;;;;;;6357329;22;20052;-78
2021/11/12 07:27:14;;;;;;;79.72;39.88;;;;;;;;;;6344663;22;20006;-77
2021/11/12 07:29:43;;;;;;;73.22;38.92;;;;;;;;;;6352986;22;20018;-76
2021/11/12 07:32:09;;;;;;;77.05;37.75;;;;;;;;;;6356282;22;20389;-78
2021/11/12 07:34:36;;;;;;;75.30;37.40;;;;;;;;;;6349651;22;20006;-78
2021/11/12 07:37:08;;;;;;;73.22;38.25;;;;;;;;;;6325700;22;20003;-77
2021/11/12 07:47:14;;;;;;;75.90;38.17;;;;;;;;;;6359769;22;20009;-76
2021/11/12 07:49:40;;;;;;;73.68;37.33;;;;;;;;;;6338989;22;20010;-75
2021/11/12 07:52:38;;;;;;;74.50;36.97;;;;;;;;;;6329596;22;20058;-80
2021/11/12 07:55:07;;;;;;;67.53;33.80;;;;;;;;;;6272936;22;19999;-78
2021/11/12 07:57:33;;;;;;;65.63;33.83;;;;;;;;;;6344009;22;20003;-77
2021/11/12 08:00:01;;;;;;;65.93;34.03;;;;;;;;;;6314020;22;20060;-77
2021/11/12 08:02:34;;;;;;;69.10;33.17;;;;;;;;;;6328155;22;20022;-75
2021/11/12 08:05:07;;;;;;;72.88;34.50;;;;;;;;;;6328988;22;20022;-76
2021/11/12 08:22:49;;;;;;;56.15;29.63;;;;;;;;;;6269160;23;20090;-78
2021/11/12 08:25:42;;;;;;;53.58;30.70;;;;;;;;;;6266417;23;20084;-78
2021/11/12 08:36:57;;;;;;;55.95;31.60;;;;;;;;;;6353621;22;20026;-76
2021/11/12 08:42:02;;;;;;;46.75;26.98;;;;;;;;;;6362059;22;20024;-79
2021/11/12 08:47:10;;;;;;;57.25;30.55;;;;;;;;;;6343316;22;20003;-75
2021/11/12 08:49:38;;;;;;;69.85;33.97;;;;;;;;;;6352677;22;19986;-76
2021/11/12 08:52:07;;;;;;;69.40;38.13;;;;;;;;;;6355176;22;20451;-78
2021/11/12 08:54:38;;;;;;;53.55;30.48;;;;;;;;;;6350954;22;20068;-77
2021/11/12 08:57:19;;;;;;;54.50;30.42;;;;;;;;;;6356395;22;20047;-75
2021/11/12 08:59:56;;;;;;;61.63;33.95;;;;;;;;;;6326852;22;19999;-81
2021/11/12 09:02:35;;;;;;;59.67;32.08;;;;;;;;;;6333724;22;20003;-77
2021/11/12 09:05:02;;;;;;;48.92;28.30;;;;;;;;;;6348213;22;20447;-76
2021/11/12 09:07:35;;;;;;;45.95;27.58;;;;;;;;;;6358043;22;20014;-76
2021/11/12 09:10:01;;;;;;;50.58;27.98;;;;;;;;;;6326607;22;20060;-77
2021/11/12 09:12:29;;;;;;;49.10;28.17;;;;;;;;;;6320768;22;20011;-76
2021/11/12 09:14:57;;;;;;;50.65;28.75;;;;;;;;;;6328045;22;20022;-74
2021/11/12 09:17:27;;;;;;;60.42;35.80;;;;;;;;;;6367459;22;20384;-76
2021/11/12 09:19:57;;;;;;;67.57;37.53;;;;;;;;;;6340433;22;19998;-76
2021/11/12 09:22:25;;;;;;;65.63;38.78;;;;;;;;;;6340199;22;20337;-76
2021/11/12 09:24:51;;;;;;;67.05;39.08;;;;;;;;;;6367244;22;20026;-75
2021/11/12 09:27:18;;;;;;;64.50;37.05;;;;;;;;;;6341301;22;20007;-75
2021/11/12 09:29:47;;;;;;;54.03;32.13;;;;;;;;;;6365184;22;20003;-74
2021/11/12 09:32:15;;;;;;;48.88;29.10;;;;;;;;;;6367273;22;20017;-76
2021/11/12 09:40:06;;;;;;;45.17;26.45;;;;;;;;;;6350355;22;20027;-77
2021/11/12 09:42:33;;;;;;;37.95;22.90;;;;;;;;;;6317027;22;20010;-77
2021/11/12 09:44:59;;;;;;;41.80;24.45;;;;;;;;;;6315397;22;20416;-77
2021/11/12 10:02:50;;;;;;;50.17;28.08;;;;;;;;;;6346511;22;20022;-79
2021/11/12 10:05:17;;;;;;;51.47;28.73;;;;;;;;;;6273017;22;20496;-75
2021/11/12 10:07:49;;;;;;;46.15;27.33;;;;;;;;;;6315799;22;20033;-80
2021/11/12 10:10:21;;;;;;;51.58;28.13;;;;;;;;;;6300190;22;20008;-77
2021/11/12 10:12:51;;;;;;;45.40;27.10;;;;;;;;;;6304498;22;20012;-78
2021/11/12 10:15:31;;;;;;;40.90;23.65;;;;;;;;;;6294391;22;20031;-78
2021/11/12 10:18:33;;;;;;;36.97;24.27;;;;;;;;;;6319311;22;20004;-78
2021/11/12 10:51:19;;;;;;;42.13;25.25;;;;;;;;;;6363449;22;20023;-75
2021/11/12 10:53:51;;;;;;;38.42;23.98;;;;;;;;;;6367657;22;19999;-76
2021/11/12 10:56:20;;;;;;;43.05;25.33;;;;;;;;;;6367833;22;19994;-78
2021/11/12 10:59:10;;;;;;;42.20;25.33;;;;;;;;;;6368089;22;19987;-76
2021/11/12 11:01:37;;;;;;;49.65;29.83;;;;;;;;;;6339742;22;20007;-77
2021/11/12 11:06:43;;;;;;;42.42;25.15;;;;;;;;;;6353613;22;20027;-79
2021/11/12 11:09:38;;;;;;;39.97;24.08;;;;;;;;;;6286321;22;20006;-79
2021/11/12 11:12:05;;;;;;;44.08;26.88;;;;;;;;;;6341655;22;20021;-76
2021/11/12 11:14:35;;;;;;;41.58;25.75;;;;;;;;;;6315086;22;20014;-77
2021/11/12 11:17:26;;;;;;;41.92;24.88;;;;;;;;;;6351049;22;19995;-77
2021/11/12 11:19:53;;;;;;;42.42;25.80;;;;;;;;;;6261127;23;20008;-78
2021/11/12 11:22:20;;;;;;;42.53;27.23;;;;;;;;;;6226349;23;20010;-76
2021/11/12 11:24:49;;;;;;;43.25;26.38;;;;;;;;;;6250555;23;20071;-76
2021/11/12 11:27:19;;;;;;;49.35;27.17;;;;;;;;;;6266931;23;20000;-78
2021/11/12 11:29:45;;;;;;;43.70;26.05;;;;;;;;;;6229479;23;20086;-75
2021/11/12 11:32:13;;;;;;;48.97;26.88;;;;;;;;;;6231614;23;20485;-79
2021/11/12 11:34:39;;;;;;;43.60;27.00;;;;;;;;;;6249913;23;20012;-76
2021/11/12 11:37:06;;;;;;;46.85;28.13;;;;;;;;;;6221498;23;20103;-78
2021/11/12 11:43:05;;;;;;;50.05;27.17;;;;;;;;;;6271841;22;20028;-80
2021/11/12 11:46:06;;;;;;;47.03;28.70;;;;;;;;;;6261558;23;20043;-78
2021/11/12 11:48:37;;;;;;;45.45;26.98;;;;;;;;;;6261316;23;20036;-79
2021/11/12 11:51:04;;;;;;;50.00;29.95;;;;;;;;;;6221310;23;20092;-78
2021/11/12 11:53:38;;;;;;;66.97;35.95;;;;;;;;;;6247373;23;20012;-77
2021/11/12 11:56:30;;;;;;;50.58;28.63;;;;;;;;;;6269165;22;20005;-79
2021/11/12 11:59:51;;;;;;;;;;;;;;;;;;;;;
2021/11/12 12:02:49;;;;;;;50.70;28.17;;;;;;;;;;6265161;23;19994;-78
2021/11/12 12:05:16;;;;;;;45.47;27.25;;;;;;;;;;6225353;23;20088;-78
2021/11/12 12:07:51;;;;;;;50.72;26.10;;;;;;;;;;6227392;23;20016;-78
2021/11/12 12:13:42;;;;;;;44.35;26.15;;;;;;;;;;6204470;23;20021;-78
2021/11/12 12:16:27;;;;;;;47.63;26.65;;;;;;;;;;6207997;23;19992;-81
2021/11/12 12:19:08;;;;;;;46.88;26.20;;;;;;;;;;6210272;23;20045;-80
2021/11/12 13:24:30;;;;;;;56.90;31.00;;;;;;;;;;6179797;23;20005;-78
2021/11/12 13:27:12;;;;;;;57.47;30.95;;;;;;;;;;6158178;23;20020;-81
2021/11/12 13:29:59;;;;;;;52.67;31.67;;;;;;;;;;6122625;23;20005;-77
2021/11/12 13:33:06;;;;;;;58.17;31.80;;;;;;;;;;6093399;23;20058;-76
2021/11/12 13:35:35;;;;;;;52.90;30.55;;;;;;;;;;6094310;23;20019;-76
2021/11/12 13:38:05;;;;;;;63.17;37.08;;;;;;;;;;6094516;23;19998;-76
2021/11/12 13:40:33;;;;;;;61.20;35.33;;;;;;;;;;6093738;23;20069;-76
2021/11/12 13:43:00;;;;;;;52.72;30.15;;;;;;;;;;6092206;23;20007;-74
2021/11/12 13:46:06;;;;;;;52.50;32.33;;;;;;;;;;6093012;23;20023;-79
2021/11/12 13:48:57;;;;;;;53.45;31.10;;;;;;;;;;5993774;23;20048;-76
2021/11/12 13:51:32;;;;;;;53.70;31.40;;;;;;;;;;5991425;24;20012;-77
2021/11/12 13:56:35;;;;;;;59.90;36.78;;;;;;;;;;6316895;22;20015;-78
2021/11/12 13:59:10;;;;;;;75.90;50.28;;;;;;;;;;6321908;22;20441;-78
2021/11/12 14:01:39;;;;;;;67.55;39.70;;;;;;;;;;6329583;22;20017;-76
2021/11/12 14:04:26;;;;;;;58.75;35.03;;;;;;;;;;6331076;22;20002;-75
2021/11/12 14:09:38;;;;;;;82.43;49.75;;;;;;;;;;6397495;22;20022;-80
2021/11/12 14:12:06;;;;;;;70.47;39.40;;;;;;;;;;6391159;22;19998;-79
2021/11/12 14:14:34;;;;;;;65.15;37.65;;;;;;;;;;6388489;22;20062;-78
2021/11/12 14:17:15;;;;;;;65.13;39.10;;;;;;;;;;6363246;22;20005;-79
2021/11/12 14:20:08;;;;;;;60.95;37.17;;;;;;;;;;6391226;22;20439;-78
2021/11/12 14:22:44;;;;;;;58.10;34.70;;;;;;;;;;6364419;22;19993;-77
2021/11/12 14:28:05;;;;;;;65.05;39.25;;;;;;;;;;6403790;22;20434;-78
2021/11/12 14:30:58;;;;;;;67.82;38.33;;;;;;;;;;6365719;22;19998;-78
2021/11/12 14:33:48;;;;;;;73.05;45.25;;;;;;;;;;6390452;22;20081;-77
2021/11/12 14:36:21;;;;;;;80.70;48.30;;;;;;;;;;6388908;22;20013;-78
2021/11/12 14:39:02;;;;;;;75.60;46.22;;;;;;;;;;6388954;22;20005;-76
2021/11/12 14:41:48;;;;;;;71.88;44.38;;;;;;;;;;6365170;22;20002;-76
2021/11/12 14:47:17;;;;;;;58.47;37.60;;;;;;;;;;6388628;22;20014;-79
2021/11/12 14:49:46;;;;;;;62.85;38.35;;;;;;;;;;6365846;22;20002;-79
2021/11/12 14:52:14;;;;;;;74.55;43.65;;;;;;;;;;6366231;22;20006;-79
2021/11/12 14:54:50;;;;;;;71.18;41.17;;;;;;;;;;6393117;22;19982;-78
2021/11/12 14:57:55;;;;;;;64.47;36.33;;;;;;;;;;6366293;22;20013;-78
2021/11/12 15:00:17;;;;;;;75.95;44.70;;;;;;;;;;6383692;22;20031;-77
2021/11/12 15:02:45;;;;;;;81.22;47.40;;;;;;;;;;6392327;22;20002;-79
2021/11/12 15:05:14;;;;;;;72.32;43.10;;;;;;;;;;6366746;22;20017;-78
2021/11/12 15:07:48;;;;;;;87.30;52.17;;;;;;;;;;6369030;22;19994;-79
2021/11/12 15:10:26;;;;;;;;;;;;;;;;;;6395233;22;19978;-79
2021/11/12 15:12:53;;;;;;;60.47;36.55;;;;;;;;;;6367446;22;19928;-78
2021/11/12 15:15:20;;;;;;;66.40;41.35;;;;;;;;;;6368441;22;19999;-79
2021/11/12 15:17:49;;;;;;;73.07;42.83;;;;;;;;;;6393363;22;20003;-78
2021/11/12 15:20:16;;;;;;;65.47;40.45;;;;;;;;;;6387656;22;20170;-76
2021/11/12 15:23:21;;;;;;;58.70;36.97;;;;;;;;;;6395059;22;20006;-79
2021/11/12 15:26:06;;;;;;;;;;;;;;;;;;6397876;22;20062;-78
2021/11/12 15:28:49;;;;;;;73.53;44.65;;;;;;;;;;6395978;22;19906;-77
2021/11/12 15:33:56;;;;;;;68.72;44.15;;;;;;;;;;6397636;22;20020;-78
2021/11/12 15:37:02;;;;;;;73.28;46.58;;;;;;;;;;6393613;22;20002;-77
2021/11/12 15:45:15;;;;;;;83.45;44.95;;;;;;;;;;6298860;22;20252;-78
2021/11/12 15:48:14;;;;;;;86.80;49.58;;;;;;;;;;6295146;22;20376;-78
2021/11/12 15:55:54;;;;;;;82.15;49.53;;;;;;;;;;6309046;22;20000;-78
2021/11/12 16:09:48;;;;;;;118.60;65.07;;;;;;;;;;6176111;23;20137;-77
2021/11/12 16:25:24;;;;;;;110.50;60.42;;;;;;;;;;6356462;22;20017;-77
2021/11/12 16:28:00;;;;;;;108.13;62.20;;;;;;;;;;6328015;22;20095;-77
2021/11/12 16:30:31;;;;;;;170.98;103.85;;;;;;;;;;6354544;22;20003;-76
2021/11/12 16:32:59;;;;;;;144.38;85.75;;;;;;;;;;6331641;22;20017;-78
2021/11/12 16:35:30;;;;;;;112.00;64.30;;;;;;;;;;6323664;22;20003;-78
2021/11/12 16:38:05;;;;;;;125.30;71.03;;;;;;;;;;6298640;22;20034;-77
2021/11/12 16:57:14;;;;;;;111.55;64.82;;;;;;;;;;6331203;22;20023;-77
2021/11/12 17:02:28;;;;;;;116.28;64.90;;;;;;;;;;6389149;22;20139;-76
2021/11/12 17:07:52;;;;;;;167.25;95.50;;;;;;;;;;6338448;22;20095;-76
2021/11/12 17:16:06;;;;;;;177.32;94.13;;;;;;;;;;6239619;23;20104;-75
2021/11/12 17:44:46;;;;;;;116.07;66.00;;;;;;;;;;6243651;23;20047;-76
2021/11/12 17:48:41;;;;;;;96.80;53.88;;;;;;;;;;6329225;22;20046;-80
